createdAt,value
2018-06-01T00:01:24.116Z,19.10
2018-06-01T00:03:51.885Z,19.10
2018-06-01T00:06:19.885Z,19.04
2018-06-01T00:08:46.608Z,18.96
2018-06-01T00:11:15.423Z,18.98
2018-06-01T00:13:42.220Z,19.02
2018-06-01T00:16:08.776Z,18.95
2018-06-01T00:18:35.490Z,18.92
2018-06-01T00:21:02.756Z,18.90
2018-06-01T00:23:31.175Z,18.94
2018-06-01T00:25:57.826Z,18.83
2018-06-01T00:28:24.536Z,18.78
2018-06-01T00:30:51.153Z,18.78
2018-06-01T00:33:17.744Z,18.79
2018-06-01T00:35:44.420Z,18.76
2018-06-01T00:38:11.116Z,18.72
2018-06-01T00:40:37.928Z,18.74
2018-06-01T00:43:04.848Z,18.69
2018-06-01T00:45:32.217Z,18.66
2018-06-01T00:47:59.185Z,18.61
2018-06-01T00:50:25.990Z,18.60
2018-06-01T00:52:53.758Z,18.56
2018-06-01T00:55:25.479Z,18.59
2018-06-01T00:57:52.173Z,18.55
2018-06-01T01:00:20.341Z,18.49
2018-06-01T01:02:47.020Z,18.55
2018-06-01T01:05:13.865Z,18.42
2018-06-01T01:07:40.574Z,18.33
2018-06-01T01:10:07.383Z,18.27
2018-06-01T01:12:33.961Z,18.23
2018-06-01T01:15:00.673Z,18.20
2018-06-01T01:17:27.370Z,18.17
2018-06-01T01:19:53.994Z,18.15
2018-06-01T01:22:20.784Z,18.17
2018-06-01T01:24:47.517Z,18.25
2018-06-01T01:27:15.183Z,18.22
2018-06-01T01:29:43.077Z,18.13
2018-06-01T01:32:10.250Z,18.13
2018-06-01T01:34:36.911Z,18.11
2018-06-01T01:37:03.821Z,18.10
2018-06-01T01:39:30.712Z,18.14
2018-06-01T01:41:57.533Z,18.06
2018-06-01T01:44:24.270Z,18.06
2018-06-01T01:46:50.834Z,18.05
2018-06-01T01:49:17.571Z,18.01
2018-06-01T01:51:44.343Z,18.05
2018-06-01T01:54:11.137Z,17.92
2018-06-01T01:56:37.786Z,17.85
2018-06-01T01:59:04.529Z,17.82
2018-06-01T02:01:31.326Z,17.82
2018-06-01T02:03:58.121Z,17.86
2018-06-01T02:06:25.010Z,17.85
2018-06-01T02:08:51.815Z,17.93
2018-06-01T02:11:18.433Z,17.90
2018-06-01T02:13:45.198Z,17.90
2018-06-01T02:16:13.980Z,17.85
2018-06-01T02:18:40.610Z,17.81
2018-06-01T02:21:07.493Z,17.78
2018-06-01T02:23:34.221Z,17.75
2018-06-01T02:26:01.447Z,17.69
2018-06-01T02:28:28.399Z,17.70
2018-06-01T02:30:56.214Z,17.67
2018-06-01T02:33:23.557Z,17.60
2018-06-01T02:35:53.345Z,17.58
2018-06-01T02:38:20.097Z,17.60
2018-06-01T02:40:47.558Z,17.59
2018-06-01T02:43:14.208Z,17.51
2018-06-01T02:45:41.111Z,17.50
2018-06-01T02:48:07.916Z,17.54
2018-06-01T02:50:34.653Z,17.55
2018-06-01T02:53:02.326Z,17.48
2018-06-01T02:55:33.651Z,17.52
2018-06-01T02:58:07.311Z,17.54
2018-06-01T03:00:37.122Z,17.51
2018-06-01T03:03:07.078Z,17.54
2018-06-01T03:05:33.892Z,17.56
2018-06-01T03:08:00.685Z,17.52
2018-06-01T03:10:27.354Z,17.55
2018-06-01T03:12:54.150Z,17.60
2018-06-01T03:15:21.743Z,17.57
2018-06-01T03:17:48.679Z,17.50
2018-06-01T03:20:15.658Z,17.51
2018-06-01T03:22:42.577Z,17.51
2018-06-01T03:25:10.939Z,17.49
2018-06-01T03:27:42.311Z,17.54
2018-06-01T03:30:13.796Z,17.46
2018-06-01T03:32:41.101Z,17.52
2018-06-01T03:35:08.726Z,17.59
2018-06-01T03:37:36.617Z,17.56
2018-06-01T03:40:04.752Z,17.51
2018-06-01T03:42:34.670Z,17.48
2018-06-01T03:47:52.143Z,17.56
2018-06-01T03:50:21.340Z,17.56
2018-06-01T03:52:53.277Z,17.60
2018-06-01T03:55:20.139Z,17.60
2018-06-01T03:57:46.930Z,17.60
2018-06-01T04:00:13.744Z,17.70
2018-06-01T04:02:40.583Z,17.71
2018-06-01T04:05:07.290Z,17.84
2018-06-01T04:07:33.880Z,17.87
2018-06-01T04:10:00.429Z,17.86
2018-06-01T04:12:26.969Z,17.94
2018-06-01T04:14:53.761Z,18.03
2018-06-01T04:17:21.383Z,18.12
2018-06-01T04:19:48.277Z,18.21
2018-06-01T04:22:14.911Z,18.28
2018-06-01T04:24:43.308Z,18.34
2018-06-01T04:27:12.573Z,18.37
2018-06-01T04:29:39.541Z,18.37
2018-06-01T04:32:07.557Z,18.40
2018-06-01T04:34:34.966Z,18.51
2018-06-01T04:37:02.924Z,18.60
2018-06-01T04:39:29.957Z,18.67
2018-06-01T04:44:29.906Z,18.78
2018-06-01T04:46:57.498Z,18.84
2018-06-01T04:49:25.341Z,18.90
2018-06-01T04:51:52.598Z,18.97
2018-06-01T04:54:19.408Z,19.03
2018-06-01T04:56:46.682Z,18.97
2018-06-01T04:59:13.353Z,19.07
2018-06-01T05:01:40.006Z,19.18
2018-06-01T05:04:07.768Z,19.29
2018-06-01T05:06:34.498Z,19.36
2018-06-01T05:09:01.643Z,19.44
2018-06-01T05:11:28.637Z,19.50
2018-06-01T05:13:55.589Z,19.56
2018-06-01T05:16:22.325Z,19.81
2018-06-01T05:18:49.634Z,20.21
2018-06-01T05:21:16.441Z,20.62
2018-06-01T05:23:43.557Z,20.94
2018-06-01T05:26:10.392Z,21.21
2018-06-01T05:28:37.065Z,21.29
2018-06-01T05:31:03.873Z,21.57
2018-06-01T05:33:30.513Z,21.77
2018-06-01T05:35:57.450Z,21.85
2018-06-01T05:38:24.237Z,21.99
2018-06-01T05:40:50.874Z,22.19
2018-06-01T05:43:17.583Z,22.28
2018-06-01T05:45:44.181Z,22.41
2018-06-01T05:48:10.797Z,22.40
2018-06-01T05:50:37.586Z,22.55
2018-06-01T05:53:04.147Z,22.66
2018-06-01T05:55:30.841Z,22.71
2018-06-01T05:57:57.469Z,22.81
2018-06-01T06:00:24.610Z,22.87
2018-06-01T06:02:51.285Z,22.51
2018-06-01T06:05:18.161Z,22.73
2018-06-01T06:07:44.908Z,22.69
2018-06-01T06:10:11.826Z,22.84
2018-06-01T06:12:38.497Z,22.71
2018-06-01T06:15:05.164Z,22.70
2018-06-01T06:17:31.829Z,22.72
2018-06-01T06:19:58.429Z,22.84
2018-06-01T06:22:25.090Z,22.88
2018-06-01T06:24:54.125Z,22.86
2018-06-01T06:27:20.978Z,22.86
2018-06-01T06:29:47.685Z,22.69
2018-06-01T06:32:14.410Z,22.79
2018-06-01T06:34:41.013Z,22.64
2018-06-01T06:37:07.589Z,22.65
2018-06-01T06:39:34.381Z,22.70
2018-06-01T06:42:01.034Z,22.81
2018-06-01T06:44:27.793Z,22.94
2018-06-01T06:46:54.730Z,22.96
2018-06-01T06:49:22.383Z,23.07
2018-06-01T06:51:49.609Z,23.23
2018-06-01T06:54:16.762Z,23.28
2018-06-01T06:56:43.652Z,23.40
2018-06-01T06:59:10.640Z,23.35
2018-06-01T07:01:37.716Z,23.46
2018-06-01T07:04:04.858Z,23.50
2018-06-01T07:06:31.659Z,23.62
2018-06-01T07:08:58.466Z,23.58
2018-06-01T07:11:25.546Z,23.72
2018-06-01T07:13:52.410Z,23.84
2018-06-01T07:16:19.671Z,23.92
2018-06-01T07:18:46.421Z,23.93
2018-06-01T07:21:13.850Z,24.00
2018-06-01T07:23:40.598Z,23.59
2018-06-01T07:26:07.719Z,23.54
2018-06-01T07:28:34.461Z,23.74
2018-06-01T07:31:01.379Z,23.81
2018-06-01T07:33:28.378Z,23.88
2018-06-01T07:35:55.187Z,23.87
2018-06-01T07:38:22.758Z,23.86
2018-06-01T07:40:49.718Z,23.92
2018-06-01T07:43:16.512Z,23.99
2018-06-01T07:45:43.110Z,23.95
2018-06-01T07:48:09.730Z,24.06
2018-06-01T07:50:36.452Z,24.18
2018-06-01T07:53:03.855Z,24.08
2018-06-01T07:55:30.484Z,24.21
2018-06-01T07:57:57.314Z,24.41
2018-06-01T08:00:23.789Z,24.54
2018-06-01T08:02:50.467Z,24.63
2018-06-01T08:05:17.101Z,24.78
2018-06-01T08:07:43.710Z,24.74
2018-06-01T08:10:10.342Z,24.82
2018-06-01T08:12:37.113Z,24.96
2018-06-01T08:15:03.615Z,25.01
2018-06-01T08:17:30.125Z,25.08
2018-06-01T08:19:56.822Z,25.10
2018-06-01T08:22:23.385Z,25.10
2018-06-01T08:24:50.034Z,25.19
2018-06-01T08:27:16.521Z,25.21
2018-06-01T08:29:44.190Z,25.35
2018-06-01T08:32:10.876Z,25.38
2018-06-01T08:34:37.676Z,25.46
2018-06-01T08:37:04.197Z,25.44
2018-06-01T08:39:31.009Z,25.49
2018-06-01T08:41:57.609Z,25.56
2018-06-01T08:44:24.125Z,25.65
2018-06-01T08:46:51.055Z,25.64
2018-06-01T08:49:17.643Z,25.63
2018-06-01T08:51:44.331Z,25.61
2018-06-01T08:54:10.966Z,25.70
2018-06-01T08:56:37.694Z,25.79
2018-06-01T08:59:04.527Z,25.81
2018-06-01T09:01:31.333Z,25.87
2018-06-01T09:26:19.005Z,25.91
2018-06-01T09:28:45.580Z,25.88
2018-06-01T09:31:12.228Z,26.01
2018-06-01T09:33:39.108Z,26.05
2018-06-01T09:36:06.063Z,26.04
2018-06-01T09:38:32.860Z,26.08
2018-06-01T09:40:59.551Z,26.13
2018-06-01T09:43:26.270Z,26.25
2018-06-01T09:45:52.895Z,26.20
2018-06-01T09:48:19.770Z,26.18
2018-06-01T09:50:46.509Z,26.20
2018-06-01T09:53:13.079Z,26.27
2018-06-01T09:55:39.948Z,26.25
2018-06-01T09:58:07.037Z,26.31
2018-06-01T10:00:39.781Z,26.28
2018-06-01T10:03:06.383Z,26.17
2018-06-01T10:05:33.004Z,26.20
2018-06-01T10:07:59.934Z,26.21
2018-06-01T10:10:32.523Z,26.31
2018-06-01T10:12:59.288Z,26.35
2018-06-01T10:15:25.820Z,26.36
2018-06-01T10:17:52.569Z,26.43
2018-06-01T10:20:19.486Z,26.44
2018-06-01T10:22:46.284Z,26.45
2018-06-01T10:25:13.112Z,26.51
2018-06-01T10:27:39.728Z,26.52
2018-06-01T10:30:06.280Z,26.42
2018-06-01T10:32:32.969Z,26.60
2018-06-01T10:34:59.575Z,26.59
2018-06-01T10:37:28.447Z,26.62
2018-06-01T10:39:55.526Z,26.66
2018-06-01T10:42:22.277Z,26.67
2018-06-01T10:44:48.962Z,26.80
2018-06-01T10:47:15.639Z,26.81
2018-06-01T10:49:42.813Z,26.87
2018-06-01T10:52:09.713Z,26.90
2018-06-01T10:54:36.265Z,26.82
2018-06-01T10:57:03.181Z,26.76
2018-06-01T10:59:29.936Z,26.75
2018-06-01T11:03:49.040Z,26.71
2018-06-01T11:06:15.847Z,26.64
2018-06-01T11:08:42.665Z,26.73
2018-06-01T11:11:09.232Z,26.74
2018-06-01T11:13:36.041Z,26.65
2018-06-01T11:16:02.679Z,26.65
2018-06-01T11:18:29.395Z,26.71
2018-06-01T11:20:56.176Z,26.71
2018-06-01T11:23:22.801Z,26.86
2018-06-01T11:25:49.481Z,26.92
2018-06-01T11:28:16.434Z,26.96
2018-06-01T11:30:43.240Z,26.91
2018-06-01T11:33:09.951Z,26.98
2018-06-01T11:35:36.753Z,27.02
2018-06-01T11:38:03.450Z,27.05
2018-06-01T11:40:30.178Z,27.09
2018-06-01T11:42:56.976Z,27.14
2018-06-01T11:45:23.615Z,27.18
2018-06-01T11:47:50.369Z,27.23
2018-06-01T11:50:17.097Z,27.12
2018-06-01T11:52:51.106Z,27.25
2018-06-01T11:55:17.744Z,27.16
2018-06-01T11:57:44.415Z,27.22
2018-06-01T12:00:11.016Z,27.23
2018-06-01T12:02:37.960Z,27.26
2018-06-01T12:05:04.649Z,27.42
2018-06-01T12:07:31.410Z,27.43
2018-06-01T12:09:57.948Z,27.46
2018-06-01T12:12:24.706Z,27.38
2018-06-01T12:14:51.330Z,27.48
2018-06-01T12:17:18.014Z,27.48
2018-06-01T12:19:44.544Z,27.38
2018-06-01T12:22:11.373Z,27.37
2018-06-01T12:24:38.320Z,27.39
2018-06-01T12:27:05.074Z,27.48
2018-06-01T12:29:32.063Z,27.49
2018-06-01T12:31:58.819Z,27.52
2018-06-01T12:34:25.583Z,27.59
2018-06-01T12:36:52.646Z,27.60
2018-06-01T12:39:19.419Z,27.73
2018-06-01T12:41:46.847Z,27.75
2018-06-01T12:44:13.664Z,27.78
2018-06-01T12:46:40.353Z,27.85
2018-06-01T12:49:07.384Z,27.87
2018-06-01T12:51:34.061Z,28.00
2018-06-01T12:54:00.881Z,28.03
2018-06-01T12:56:27.811Z,28.04
2018-06-01T12:58:54.965Z,28.02
2018-06-01T13:01:22.069Z,28.01
2018-06-01T13:03:49.032Z,27.97
2018-06-01T13:06:15.862Z,27.98
2018-06-01T13:08:42.773Z,27.94
2018-06-01T13:11:09.392Z,28.09
2018-06-01T13:13:35.887Z,27.99
2018-06-01T13:16:02.501Z,27.93
2018-06-01T13:18:29.009Z,27.89
2018-06-01T13:20:55.595Z,27.94
2018-06-01T13:23:22.227Z,28.03
2018-06-01T13:25:48.736Z,27.93
2018-06-01T13:28:15.407Z,27.96
2018-06-01T13:30:42.160Z,27.91
2018-06-01T13:33:08.920Z,27.77
2018-06-01T13:35:35.601Z,27.66
2018-06-01T13:38:02.270Z,27.62
2018-06-01T13:40:29.103Z,27.52
2018-06-01T13:42:55.688Z,27.55
2018-06-01T13:45:22.370Z,27.56
2018-06-01T13:47:49.259Z,27.67
2018-06-01T13:50:15.885Z,27.81
2018-06-01T13:52:42.954Z,27.88
2018-06-01T13:55:09.733Z,27.94
2018-06-01T13:57:36.349Z,28.02
2018-06-01T14:09:08.673Z,27.97
2018-06-01T14:11:35.282Z,27.93
2018-06-01T14:14:02.182Z,27.93
2018-06-01T14:16:28.845Z,27.85
2018-06-01T14:18:55.537Z,27.75
2018-06-01T14:21:22.561Z,27.66
2018-06-01T14:23:49.535Z,27.69
2018-06-01T14:26:16.353Z,27.58
2018-06-01T14:31:24.347Z,27.56
2018-06-01T14:33:51.069Z,27.54
2018-06-01T14:36:17.713Z,27.44
2018-06-01T14:38:44.661Z,27.47
2018-06-01T14:41:11.741Z,27.57
2018-06-01T14:43:38.460Z,27.52
2018-06-01T14:46:05.267Z,27.49
2018-06-01T14:48:32.067Z,27.48
2018-06-01T14:50:58.910Z,27.38
2018-06-01T14:53:26.001Z,27.43
2018-06-01T14:55:52.545Z,27.39
2018-06-01T14:58:19.104Z,27.34
2018-06-01T15:00:45.768Z,27.28
2018-06-01T15:03:12.403Z,27.38
2018-06-01T15:05:38.974Z,27.44
2018-06-01T15:08:05.561Z,27.54
2018-06-01T15:10:32.069Z,27.53
2018-06-01T15:12:58.903Z,27.67
2018-06-01T15:15:25.673Z,27.72
2018-06-01T15:17:52.417Z,27.78
2018-06-01T15:20:19.004Z,27.72
2018-06-01T15:22:45.642Z,27.66
2018-06-01T15:25:12.409Z,27.72
2018-06-01T15:27:39.081Z,27.77
2018-06-01T15:30:05.799Z,27.73
2018-06-01T15:32:33.821Z,27.74
2018-06-01T15:35:01.042Z,27.73
2018-06-01T15:37:27.648Z,27.71
2018-06-01T15:39:54.538Z,27.68
2018-06-01T15:42:21.244Z,27.67
2018-06-01T15:44:47.945Z,27.58
2018-06-01T15:47:18.095Z,27.65
2018-06-01T15:49:45.188Z,27.64
2018-06-01T15:52:15.547Z,27.61
2018-06-01T15:54:43.061Z,27.66
2018-06-01T15:57:09.983Z,27.63
2018-06-01T15:59:36.822Z,27.67
2018-06-01T16:02:05.392Z,27.63
2018-06-01T16:04:32.273Z,27.65
2018-06-01T16:06:59.154Z,27.64
2018-06-01T16:09:25.831Z,27.60
2018-06-01T16:11:52.505Z,27.53
2018-06-01T16:14:19.725Z,27.49
2018-06-01T16:16:47.040Z,27.54
2018-06-01T16:19:13.916Z,27.55
2018-06-01T16:21:40.801Z,27.48
2018-06-01T16:24:07.432Z,27.49
2018-06-01T16:26:34.011Z,27.47
2018-06-01T16:29:00.661Z,27.40
2018-06-01T16:31:27.412Z,27.42
2018-06-01T16:33:54.241Z,27.38
2018-06-01T16:36:21.077Z,27.42
2018-06-01T16:38:47.744Z,27.26
2018-06-01T16:41:15.271Z,27.35
2018-06-01T16:43:41.841Z,27.30
2018-06-01T16:46:08.416Z,27.27
2018-06-01T16:48:34.928Z,27.30
2018-06-01T16:51:01.505Z,27.29
2018-06-01T16:53:28.228Z,27.31
2018-06-01T16:55:54.891Z,27.36
2018-06-01T16:58:21.733Z,27.31
2018-06-01T17:00:48.245Z,27.26
2018-06-01T17:03:14.866Z,27.23
2018-06-01T17:05:41.665Z,27.21
2018-06-01T17:08:08.655Z,27.14
2018-06-01T17:10:35.160Z,27.11
2018-06-01T17:13:01.854Z,27.02
2018-06-01T17:15:29.771Z,26.92
2018-06-01T17:20:48.645Z,27.00
2018-06-01T17:23:15.403Z,26.95
2018-06-01T17:25:42.159Z,26.89
2018-06-01T17:28:08.740Z,26.88
2018-06-01T17:30:35.389Z,26.85
2018-06-01T17:33:01.917Z,26.78
2018-06-01T17:35:28.660Z,26.72
2018-06-01T17:37:55.340Z,26.75
2018-06-01T17:40:22.012Z,26.71
2018-06-01T17:42:48.613Z,26.72
2018-06-01T17:45:15.248Z,26.71
2018-06-01T17:47:41.745Z,26.69
2018-06-01T17:50:08.367Z,26.64
2018-06-01T17:52:35.058Z,26.63
2018-06-01T17:55:01.749Z,26.59
2018-06-01T17:57:28.350Z,26.53
2018-06-01T17:59:55.045Z,26.55
2018-06-01T18:02:21.789Z,26.53
2018-06-01T18:04:50.233Z,26.48
2018-06-01T18:07:17.108Z,26.45
2018-06-01T18:09:43.656Z,26.44
2018-06-01T18:12:10.314Z,26.41
2018-06-01T18:14:37.113Z,26.38
2018-06-01T18:17:03.752Z,26.37
2018-06-01T18:19:30.440Z,26.33
2018-06-01T18:21:57.525Z,26.27
2018-06-01T18:24:24.130Z,26.19
2018-06-01T18:26:50.627Z,26.19
2018-06-01T18:29:17.406Z,26.18
2018-06-01T18:31:44.187Z,26.16
2018-06-01T18:34:10.738Z,26.14
2018-06-01T18:36:37.263Z,26.09
2018-06-01T18:39:04.878Z,26.00
2018-06-01T18:41:31.480Z,26.03
2018-06-01T18:43:58.651Z,26.00
2018-06-01T18:46:26.078Z,26.00
2018-06-01T18:48:52.677Z,25.99
2018-06-01T18:51:19.213Z,25.97
2018-06-01T18:53:45.915Z,25.96
2018-06-01T18:56:12.531Z,25.94
2018-06-01T18:58:39.213Z,25.93
2018-06-01T19:01:05.999Z,25.91
2018-06-01T19:03:32.520Z,25.89
2018-06-01T19:05:59.529Z,25.87
2018-06-01T19:08:26.026Z,25.90
2018-06-01T19:10:52.644Z,25.86
2018-06-01T19:13:19.196Z,25.84
2018-06-01T19:15:46.084Z,25.80
2018-06-01T19:18:12.549Z,25.79
2018-06-01T19:20:39.083Z,25.75
2018-06-01T19:23:05.562Z,25.74
2018-06-01T19:25:32.225Z,25.69
2018-06-01T19:27:58.833Z,25.66
2018-06-01T19:30:25.447Z,25.61
2018-06-01T19:32:51.970Z,25.52
2018-06-01T19:35:18.516Z,25.47
2018-06-01T19:37:45.101Z,25.38
2018-06-01T19:40:11.736Z,25.34
2018-06-01T19:42:38.616Z,25.31
2018-06-01T19:45:05.376Z,25.25
2018-06-01T19:47:32.111Z,25.22
2018-06-01T19:49:58.655Z,25.17
2018-06-01T19:52:25.204Z,25.10
2018-06-01T19:54:51.794Z,25.04
2018-06-01T19:57:18.777Z,24.93
2018-06-01T19:59:45.697Z,24.91
2018-06-01T20:02:12.358Z,24.82
2018-06-01T20:04:38.908Z,24.78
2018-06-01T20:07:05.444Z,24.70
2018-06-01T20:09:32.218Z,24.67
2018-06-01T20:11:58.867Z,24.61
2018-06-01T20:14:25.557Z,24.55
2018-06-01T20:16:52.137Z,24.47
2018-06-01T20:19:18.710Z,24.36
2018-06-01T20:21:45.320Z,24.33
2018-06-01T20:24:11.896Z,24.28
2018-06-01T20:26:38.491Z,24.21
2018-06-01T20:29:05.072Z,24.13
2018-06-01T20:31:31.653Z,24.10
2018-06-01T20:33:58.223Z,24.05
2018-06-01T20:36:24.748Z,24.00
2018-06-01T20:38:51.362Z,23.97
2018-06-01T20:41:17.961Z,23.91
2018-06-01T20:43:44.476Z,23.86
2018-06-01T20:46:12.364Z,23.81
2018-06-01T20:48:53.852Z,23.78
2018-06-01T20:51:20.457Z,23.71
2018-06-01T20:53:46.972Z,23.67
2018-06-01T20:56:13.588Z,23.58
2018-06-01T20:58:40.058Z,23.57
2018-06-01T21:01:06.711Z,23.53
2018-06-01T21:03:33.470Z,23.44
2018-06-01T21:06:00.122Z,23.39
2018-06-01T21:08:26.664Z,23.29
2018-06-01T21:10:53.281Z,23.26
2018-06-01T21:16:12.019Z,23.23
2018-06-01T21:18:38.737Z,23.22
2018-06-01T21:24:09.350Z,23.20
2018-06-01T21:26:36.045Z,23.20
2018-06-01T21:29:02.592Z,23.21
2018-06-01T21:31:29.201Z,23.21
2018-06-01T21:33:55.929Z,23.21
2018-06-01T21:36:22.534Z,23.22
2018-06-01T21:38:49.298Z,23.20
2018-06-01T21:41:15.927Z,23.19
2018-06-01T21:43:42.421Z,23.16
2018-06-01T21:46:09.016Z,23.16
2018-06-01T21:48:35.637Z,23.08
2018-06-01T21:51:02.237Z,23.00
2018-06-01T21:53:28.829Z,22.92
2018-06-01T21:55:55.574Z,22.86
2018-06-01T21:58:22.229Z,22.81
2018-06-01T22:00:48.736Z,22.79
2018-06-01T22:03:15.369Z,22.76
2018-06-01T22:05:41.826Z,22.71
2018-06-01T22:08:08.496Z,22.66
2018-06-01T22:10:35.398Z,22.62
2018-06-01T22:13:01.949Z,22.53
2018-06-01T22:15:28.560Z,22.45
2018-06-01T22:17:55.134Z,22.45
2018-06-01T22:20:21.802Z,22.43
2018-06-01T22:22:48.388Z,22.44
2018-06-01T22:25:15.004Z,22.38
2018-06-01T22:27:41.671Z,22.29
2018-06-01T22:30:08.373Z,22.28
2018-06-01T22:32:34.910Z,22.22
2018-06-01T22:35:01.481Z,22.20
2018-06-01T22:37:27.997Z,22.18
2018-06-01T22:39:54.593Z,22.10
2018-06-01T22:42:21.119Z,22.10
2018-06-01T22:44:47.636Z,22.11
2018-06-01T22:47:14.264Z,22.05
2018-06-01T22:49:40.913Z,22.03
2018-06-01T22:52:07.461Z,21.95
2018-06-01T22:57:07.383Z,21.86
2018-06-01T22:59:33.954Z,21.86
2018-06-01T23:02:00.561Z,21.79
2018-06-01T23:04:27.248Z,21.77
2018-06-01T23:06:53.868Z,21.77
2018-06-01T23:09:20.487Z,21.52
2018-06-01T23:11:47.167Z,21.57
2018-06-01T23:14:13.898Z,21.57
2018-06-01T23:16:40.432Z,21.58
2018-06-01T23:19:06.927Z,21.62
2018-06-01T23:21:33.565Z,21.59
2018-06-01T23:24:00.148Z,21.62
2018-06-01T23:26:26.801Z,21.60
2018-06-01T23:29:00.280Z,21.52
2018-06-01T23:31:26.876Z,21.52
2018-06-01T23:33:53.578Z,21.44
2018-06-01T23:36:20.046Z,21.43
2018-06-01T23:38:46.639Z,21.50
2018-06-01T23:41:13.232Z,21.50
2018-06-01T23:43:39.707Z,21.53
2018-06-01T23:46:06.369Z,21.57
2018-06-01T23:48:33.029Z,21.63
2018-06-01T23:50:59.659Z,21.64
2018-06-01T23:53:26.269Z,21.70
2018-06-01T23:55:52.831Z,21.78
2018-06-01T23:58:19.317Z,21.90
